Time;durP1;ratioP1;P1;durP2;ratioP2;P2;SDS_P1;SDS_P2;PMS_P1;PMS_P2;Temp;Humidity;BMP_temperature;BMP_pressure;BME280_temperature;BME280_humidity;BME280_pressure;Samples;Min_cycle;Max_cycle;Signal;HPM_P1;HPM_P2
2023/01/05 00:01:04;;;;;;;21.60;4.55;;;9.90;99.90;;;;;;5019737;28;20042;-38
2023/01/05 00:03:30;;;;;;;22.83;5.18;;;9.90;99.90;;;;;;5003388;28;20088;-38
2023/01/05 00:06:04;;;;;;;26.00;6.10;;;9.80;99.90;;;;;;5011610;28;20038;-39
2023/01/05 00:08:30;;;;;;;20.73;5.25;;;9.80;99.90;;;;;;5007374;28;20030;-38
2023/01/05 00:24:42;;;;;;;28.30;5.00;;;9.80;99.90;;;;;;4996272;28;20144;-38
2023/01/05 00:27:08;;;;;;;23.92;4.82;;;9.80;99.90;;;;;;5011243;28;20034;-38
2023/01/05 00:29:33;;;;;;;27.05;5.20;;;9.80;99.90;;;;;;5003103;28;20041;-38
2023/01/05 00:31:59;;;;;;;25.67;6.15;;;9.80;99.90;;;;;;4993835;28;20035;-38
2023/01/05 00:34:25;;;;;;;25.77;5.57;;;9.80;99.90;;;;;;5024838;28;20071;-38
2023/01/05 00:36:51;;;;;;;27.48;5.65;;;9.80;99.90;;;;;;5006929;28;20034;-38
2023/01/05 00:39:16;;;;;;;28.85;5.38;;;9.90;99.90;;;;;;5019962;28;20050;-38
2023/01/05 00:41:42;;;;;;;23.92;5.07;;;9.90;99.90;;;;;;4997640;28;20113;-38
2023/01/05 00:44:08;;;;;;;26.95;5.20;;;9.90;99.90;;;;;;4997059;28;20049;-38
2023/01/05 00:46:33;;;;;;;29.23;5.30;;;9.90;99.90;;;;;;5004899;28;20105;-37
2023/01/05 00:48:59;;;;;;;28.95;5.60;;;9.90;99.90;;;;;;5010076;28;20054;-38
2023/01/05 00:51:25;;;;;;;24.40;5.35;;;9.90;99.90;;;;;;5013781;28;20183;-38
2023/01/05 00:53:50;;;;;;;25.77;5.32;;;9.90;99.90;;;;;;5011981;28;20046;-38
2023/01/05 00:56:16;;;;;;;24.77;5.90;;;9.90;99.90;;;;;;5006401;28;20042;-38
2023/01/05 00:58:42;;;;;;;27.40;5.47;;;9.90;99.90;;;;;;4999121;28;20042;-38
2023/01/05 01:01:12;;;;;;;30.05;4.80;;;9.90;99.90;;;;;;5016113;28;20041;-38
2023/01/05 01:03:38;;;;;;;28.60;6.45;;;9.90;99.90;;;;;;5013990;28;20052;-37
2023/01/05 01:06:04;;;;;;;29.13;5.43;;;9.90;99.90;;;;;;5014649;28;20713;-38
2023/01/05 01:08:30;;;;;;;24.75;5.03;;;9.90;99.90;;;;;;5017226;28;20120;-38
2023/01/05 01:10:56;;;;;;;25.38;5.35;;;9.90;99.90;;;;;;5003638;28;20563;-38
2023/01/05 01:13:25;;;;;;;25.35;5.63;;;10.00;99.90;;;;;;5010745;28;20048;-37
2023/01/05 01:15:50;;;;;;;28.35;5.95;;;9.90;99.90;;;;;;5003346;28;20041;-39
2023/01/05 01:18:16;;;;;;;31.70;5.20;;;9.90;99.90;;;;;;5008614;28;20038;-37
2023/01/05 01:20:42;;;;;;;26.85;6.20;;;9.90;99.90;;;;;;4997411;28;20041;-38
2023/01/05 01:23:08;;;;;;;30.80;6.00;;;9.90;99.90;;;;;;5005069;28;20044;-38
2023/01/05 01:25:36;;;;;;;33.53;6.60;;;9.90;99.90;;;;;;5004950;28;20034;-38
2023/01/05 01:28:01;;;;;;;30.98;5.18;;;9.90;99.90;;;;;;5002560;28;20100;-38
2023/01/05 01:30:27;;;;;;;24.00;5.43;;;9.90;99.90;;;;;;5001186;28;20500;-38
2023/01/05 01:32:53;;;;;;;27.88;5.43;;;9.90;99.90;;;;;;5002579;28;20117;-38
2023/01/05 01:35:19;;;;;;;28.70;5.97;;;9.90;99.90;;;;;;5001289;28;20521;-38
2023/01/05 01:37:44;;;;;;;24.30;5.68;;;9.90;99.90;;;;;;5008903;28;20043;-38
2023/01/05 01:40:12;;;;;;;28.98;5.70;;;9.90;99.90;;;;;;5027215;28;20064;-38
2023/01/05 01:42:37;;;;;;;22.40;5.75;;;9.90;99.90;;;;;;5006685;28;20026;-38
2023/01/05 01:45:20;;;;;;;27.33;5.78;;;9.90;99.90;;;;;;5027283;28;20040;-38
2023/01/05 01:47:55;;;;;;;24.67;4.80;;;9.90;99.90;;;;;;5008767;28;20108;-38
2023/01/05 01:50:29;;;;;;;21.98;5.20;;;9.90;99.90;;;;;;4994252;28;20048;-39
2023/01/05 01:53:03;;;;;;;24.30;5.35;;;9.80;99.90;;;;;;5008382;28;20049;-38
2023/01/05 01:55:30;;;;;;;29.60;5.25;;;9.80;99.90;;;;;;5017178;28;20144;-38
2023/01/05 01:57:57;;;;;;;25.85;4.93;;;9.80;99.90;;;;;;4996658;28;20109;-37
2023/01/05 02:00:22;;;;;;;21.23;4.72;;;9.90;99.90;;;;;;5015620;28;20034;-38
2023/01/05 02:02:52;;;;;;;24.58;5.25;;;9.90;99.90;;;;;;5005197;28;20048;-38
2023/01/05 02:05:26;;;;;;;21.02;4.50;;;9.90;99.90;;;;;;5022310;28;20037;-38
2023/01/05 02:07:52;;;;;;;22.27;4.82;;;9.90;99.90;;;;;;5004024;28;20116;-38
2023/01/05 02:10:54;;;;;;;19.30;4.63;;;9.90;99.90;;;;;;5002253;28;20077;-37
2023/01/05 02:13:56;;;;;;;17.92;5.00;;;9.90;99.90;;;;;;5020340;28;20096;-41
2023/01/05 02:16:34;;;;;;;21.92;4.07;;;9.90;99.90;;;;;;5002222;28;20492;-38
2023/01/05 02:19:37;;;;;;;26.50;4.57;;;9.90;99.90;;;;;;5015135;28;20045;-38
2023/01/05 02:22:12;;;;;;;22.77;4.68;;;9.80;99.90;;;;;;5016293;28;20498;-38
2023/01/05 02:25:08;;;;;;;20.15;5.10;;;9.80;99.90;;;;;;5008602;28;20113;-38
2023/01/05 02:28:08;;;;;;;19.42;4.63;;;9.80;99.90;;;;;;5012324;28;20038;-38
2023/01/05 02:30:58;;;;;;;22.00;4.63;;;9.80;99.90;;;;;;5009637;28;20407;-38
2023/01/05 02:33:30;;;;;;;24.08;4.63;;;9.80;99.90;;;;;;5030909;28;20034;-38
2023/01/05 02:36:14;;;;;;;24.13;4.65;;;9.80;99.90;;;;;;5004745;28;20046;-38
2023/01/05 02:38:52;;;;;;;26.65;5.60;;;9.80;99.90;;;;;;5019743;28;20045;-38
2023/01/05 02:41:37;;;;;;;23.40;4.25;;;9.80;99.90;;;;;;5010146;28;20038;-38
2023/01/05 02:44:06;;;;;;;24.92;4.80;;;9.80;99.90;;;;;;5014465;28;20044;-38
2023/01/05 02:46:31;;;;;;;19.85;4.32;;;9.80;99.90;;;;;;5007583;28;20064;-38
2023/01/05 02:48:59;;;;;;;26.77;5.35;;;9.80;99.90;;;;;;5008905;28;20492;-38
2023/01/05 02:51:32;;;;;;;22.92;4.72;;;9.80;99.90;;;;;;4999382;28;20250;-38
2023/01/05 02:54:05;;;;;;;18.67;4.05;;;9.90;99.90;;;;;;5007584;28;20141;-39
2023/01/05 02:56:39;;;;;;;25.38;4.25;;;9.90;99.90;;;;;;5005612;28;20049;-37
2023/01/05 02:59:05;;;;;;;18.55;4.35;;;9.90;99.90;;;;;;5005074;28;20038;-37
2023/01/05 03:01:50;;;;;;;20.85;4.60;;;9.80;99.90;;;;;;4996969;28;20038;-38
2023/01/05 03:04:21;;;;;;;22.85;5.07;;;9.90;99.90;;;;;;5018551;28;20479;-38
2023/01/05 03:06:55;;;;;;;20.40;4.20;;;9.90;99.90;;;;;;5015032;28;20084;-38
2023/01/05 03:09:26;;;;;;;23.00;4.85;;;9.90;99.90;;;;;;5009941;28;20487;-38
2023/01/05 03:15:06;;;;;;;18.60;4.53;;;9.90;99.90;;;;;;5002252;28;20108;-38
2023/01/05 03:17:43;;;;;;;20.65;3.97;;;9.80;99.90;;;;;;5020309;28;20038;-38
2023/01/05 03:20:12;;;;;;;24.83;4.22;;;9.80;99.90;;;;;;5013256;28;20034;-38
2023/01/05 03:37:10;;;;;;;21.77;4.32;;;9.70;99.90;;;;;;5006396;28;20060;-37
2023/01/05 03:39:40;;;;;;;20.83;4.80;;;9.70;99.90;;;;;;5014139;28;20113;-38
2023/01/05 03:42:08;;;;;;;26.27;5.43;;;9.70;99.90;;;;;;5009679;28;20034;-38
2023/01/05 03:44:38;;;;;;;18.55;4.60;;;9.70;99.90;;;;;;5006726;28;20045;-38
2023/01/05 03:47:04;;;;;;;18.70;3.95;;;9.70;99.90;;;;;;5006564;28;20034;-38
2023/01/05 03:49:30;;;;;;;20.05;4.28;;;9.70;99.90;;;;;;5024109;28;20114;-38
2023/01/05 03:51:56;;;;;;;17.20;4.00;;;9.80;99.90;;;;;;4998330;28;20042;-38
2023/01/05 03:54:21;;;;;;;18.40;4.30;;;9.80;99.90;;;;;;5007526;28;20061;-38
2023/01/05 03:56:47;;;;;;;20.30;4.80;;;9.80;99.90;;;;;;5009340;28;20176;-38
2023/01/05 03:59:13;;;;;;;20.67;5.70;;;9.80;99.90;;;;;;5001270;28;20126;-38
2023/01/05 04:01:39;;;;;;;20.45;4.47;;;9.80;99.90;;;;;;5010159;28;20500;-38
2023/01/05 04:04:05;;;;;;;16.30;4.22;;;9.80;99.90;;;;;;5000276;28;20089;-38
2023/01/05 04:06:30;;;;;;;21.33;4.95;;;9.80;99.90;;;;;;5006008;28;20034;-38
2023/01/05 04:08:56;;;;;;;22.08;4.15;;;9.80;99.90;;;;;;5011893;28;20499;-39
2023/01/05 04:11:24;;;;;;;25.88;4.65;;;9.80;99.90;;;;;;5003575;28;20041;-38
2023/01/05 04:13:50;;;;;;;21.05;4.32;;;9.80;99.90;;;;;;5003728;28;20033;-38
2023/01/05 04:16:16;;;;;;;20.23;4.50;;;9.80;99.90;;;;;;5010021;28;20554;-38
2023/01/05 04:18:42;;;;;;;18.50;4.45;;;9.80;99.90;;;;;;4987567;28;20046;-38
2023/01/05 04:21:08;;;;;;;26.05;5.07;;;9.80;99.90;;;;;;5006748;28;20038;-38
2023/01/05 04:23:34;;;;;;;25.35;5.07;;;9.80;99.90;;;;;;4995744;28;20549;-38
2023/01/05 04:26:00;;;;;;;17.05;4.20;;;9.80;99.90;;;;;;5011222;28;20034;-38
2023/01/05 04:28:26;;;;;;;23.73;4.35;;;9.80;99.90;;;;;;5011468;28;20399;-38
2023/01/05 04:30:53;;;;;;;22.98;4.65;;;9.80;99.90;;;;;;5020249;28;20042;-38
2023/01/05 04:33:20;;;;;;;18.25;4.22;;;9.80;99.90;;;;;;5021228;28;20422;-38
2023/01/05 04:35:47;;;;;;;17.95;3.90;;;9.80;99.90;;;;;;5009666;28;20547;-38
2023/01/05 04:38:13;;;;;;;17.92;4.55;;;9.80;99.90;;;;;;5016410;28;20037;-38
2023/01/05 04:40:39;;;;;;;18.67;4.47;;;9.80;99.90;;;;;;5003591;28;20100;-38
2023/01/05 04:43:05;;;;;;;28.77;5.18;;;9.80;99.90;;;;;;5011121;28;20437;-38
2023/01/05 04:45:31;;;;;;;23.33;4.53;;;9.80;99.90;;;;;;5012348;28;20045;-38
2023/01/05 04:47:57;;;;;;;26.63;6.13;;;9.80;99.90;;;;;;4999208;28;20100;-38
2023/01/05 04:50:23;;;;;;;22.25;3.92;;;9.80;99.90;;;;;;5001925;28;20033;-37
2023/01/05 04:52:49;;;;;;;20.08;4.20;;;9.80;99.90;;;;;;5007816;28;20050;-38
2023/01/05 04:55:15;;;;;;;22.17;4.50;;;9.80;99.90;;;;;;5012373;28;20052;-38
2023/01/05 04:57:41;;;;;;;18.85;4.20;;;9.80;99.90;;;;;;5012101;28;20496;-38
2023/01/05 05:00:07;;;;;;;15.98;3.97;;;9.80;99.90;;;;;;5008119;28;20084;-38
2023/01/05 05:02:34;;;;;;;17.80;4.45;;;9.90;99.90;;;;;;5011792;28;20567;-38
2023/01/05 05:04:59;;;;;;;17.20;4.50;;;9.90;99.90;;;;;;4994302;28;20480;-38
2023/01/05 05:07:25;;;;;;;19.20;4.32;;;9.80;99.90;;;;;;5019222;28;20045;-38
2023/01/05 05:09:51;;;;;;;19.20;4.65;;;9.80;99.90;;;;;;5004440;28;20571;-38
2023/01/05 05:12:19;;;;;;;16.98;4.72;;;9.80;99.90;;;;;;5013862;28;20069;-38
2023/01/05 05:14:49;;;;;;;15.45;3.85;;;9.80;99.90;;;;;;5025893;28;20558;-38
2023/01/05 05:17:16;;;;;;;24.05;4.50;;;9.80;99.90;;;;;;5007564;28;20046;-37
2023/01/05 05:19:42;;;;;;;19.25;3.97;;;9.80;99.90;;;;;;4997011;28;20112;-38
2023/01/05 05:22:08;;;;;;;20.73;4.32;;;9.80;99.90;;;;;;5004549;28;20038;-38
2023/01/05 05:24:34;;;;;;;28.48;4.88;;;9.80;99.90;;;;;;5000822;28;20041;-38
2023/01/05 05:27:00;;;;;;;20.30;4.00;;;9.80;99.90;;;;;;5010937;28;20372;-38
2023/01/05 05:29:25;;;;;;;22.95;4.45;;;9.80;99.90;;;;;;5001313;28;20042;-39
2023/01/05 05:31:52;;;;;;;18.75;4.28;;;9.80;99.90;;;;;;5005930;28;20037;-39
2023/01/05 05:34:18;;;;;;;17.92;3.60;;;9.80;99.90;;;;;;5017241;28;20037;-39
2023/01/05 05:36:44;;;;;;;24.30;4.55;;;9.80;99.90;;;;;;5002428;28;20042;-39
2023/01/05 05:39:14;;;;;;;23.45;5.55;;;9.70;99.90;;;;;;5010731;28;20056;-39
2023/01/05 05:41:40;;;;;;;19.17;4.53;;;9.80;99.90;;;;;;5000125;28;20121;-38
2023/01/05 05:44:07;;;;;;;19.08;4.45;;;9.80;99.90;;;;;;4999136;28;20038;-39
2023/01/05 05:46:33;;;;;;;20.13;4.57;;;9.80;99.90;;;;;;5016420;28;20040;-39
2023/01/05 05:48:59;;;;;;;19.27;3.97;;;9.80;99.90;;;;;;4995343;28;20097;-39
2023/01/05 05:51:25;;;;;;;26.30;5.22;;;9.80;99.90;;;;;;4998806;28;20046;-39
2023/01/05 05:53:52;;;;;;;26.25;4.97;;;9.80;99.90;;;;;;5014026;28;20113;-38
2023/01/05 05:56:18;;;;;;;22.42;4.05;;;9.70;99.90;;;;;;4990707;28;20104;-38
2023/01/05 05:58:44;;;;;;;17.85;4.65;;;9.80;99.90;;;;;;5005910;28;20037;-39
2023/01/05 06:01:10;;;;;;;21.27;4.60;;;9.80;99.90;;;;;;5008083;28;20046;-37
2023/01/05 06:03:35;;;;;;;18.23;4.05;;;9.80;99.90;;;;;;5016021;28;20030;-39
2023/01/05 06:06:02;;;;;;;19.83;4.45;;;9.80;99.90;;;;;;5007878;28;20080;-38
2023/01/05 06:08:28;;;;;;;15.40;3.95;;;9.80;99.90;;;;;;5009970;28;20136;-38
2023/01/05 06:10:55;;;;;;;16.92;4.55;;;9.80;99.90;;;;;;5006238;28;20066;-38
2023/01/05 06:13:21;;;;;;;22.60;4.78;;;9.80;99.90;;;;;;5021829;28;20184;-38
2023/01/05 06:15:48;;;;;;;19.08;4.85;;;9.80;99.90;;;;;;5007665;28;20050;-39
2023/01/05 06:18:14;;;;;;;18.88;4.80;;;9.80;99.90;;;;;;5009345;28;20077;-38
2023/01/05 06:20:40;;;;;;;23.63;5.00;;;9.80;99.90;;;;;;5004644;28;20042;-38
2023/01/05 06:23:06;;;;;;;18.92;3.95;;;9.80;99.90;;;;;;5005772;28;20034;-38
2023/01/05 06:25:33;;;;;;;18.77;4.63;;;9.80;99.90;;;;;;4995837;28;20497;-38
2023/01/05 06:27:59;;;;;;;19.90;4.93;;;9.80;99.90;;;;;;5001561;28;20041;-38
2023/01/05 06:30:26;;;;;;;18.33;4.65;;;9.80;99.90;;;;;;5003217;28;20129;-38
2023/01/05 06:32:52;;;;;;;22.02;4.70;;;9.80;99.90;;;;;;5012489;28;20042;-38
2023/01/05 06:35:18;;;;;;;17.75;3.92;;;9.80;99.90;;;;;;5000176;28;20456;-39
2023/01/05 06:37:43;;;;;;;19.88;4.75;;;9.80;99.90;;;;;;4998675;28;20043;-38
2023/01/05 06:40:10;;;;;;;21.63;4.82;;;9.80;99.90;;;;;;5010104;28;20042;-39
2023/01/05 06:42:37;;;;;;;23.75;4.90;;;9.80;99.90;;;;;;5010217;28;20080;-39
2023/01/05 06:45:04;;;;;;;17.80;4.32;;;9.80;99.90;;;;;;5012933;28;20069;-38
2023/01/05 06:47:30;;;;;;;19.10;4.32;;;9.80;99.90;;;;;;5014741;28;20373;-38
2023/01/05 06:49:56;;;;;;;20.95;5.63;;;9.80;99.90;;;;;;5008976;28;20041;-39
2023/01/05 06:52:22;;;;;;;19.63;4.28;;;9.80;99.90;;;;;;4997548;28;20037;-38
2023/01/05 06:54:47;;;;;;;16.17;4.20;;;9.80;99.90;;;;;;5007303;28;20050;-38
2023/01/05 06:57:13;;;;;;;27.02;5.00;;;9.80;99.90;;;;;;5008069;28;20396;-38
2023/01/05 06:59:39;;;;;;;17.15;5.05;;;9.80;99.90;;;;;;5017444;28;20034;-39
2023/01/05 07:02:08;;;;;;;16.60;4.28;;;9.80;99.90;;;;;;5008585;28;20491;-39
2023/01/05 07:04:34;;;;;;;21.00;4.32;;;9.90;99.90;;;;;;5006702;28;20030;-39
2023/01/05 07:07:00;;;;;;;22.60;5.28;;;9.90;99.90;;;;;;5015237;28;20041;-38
2023/01/05 07:09:26;;;;;;;17.33;4.28;;;9.90;99.90;;;;;;5008032;28;20037;-38
2023/01/05 07:11:51;;;;;;;18.73;4.57;;;9.80;99.90;;;;;;5014526;28;20080;-38
2023/01/05 07:14:17;;;;;;;17.35;4.97;;;9.80;99.90;;;;;;5008161;28;20132;-38
2023/01/05 07:16:43;;;;;;;14.63;4.03;;;9.80;99.90;;;;;;4995089;28;20034;-38
2023/01/05 07:19:09;;;;;;;20.98;4.72;;;9.80;99.90;;;;;;5011885;28;20041;-38
2023/01/05 07:21:35;;;;;;;16.65;4.35;;;9.80;99.90;;;;;;5020102;28;20050;-38
2023/01/05 07:24:02;;;;;;;16.92;4.45;;;9.80;99.90;;;;;;5015371;28;20034;-38
2023/01/05 07:26:27;;;;;;;24.75;4.97;;;9.80;99.90;;;;;;5020579;28;20033;-38
2023/01/05 07:28:53;;;;;;;20.75;5.93;;;9.70;99.90;;;;;;4999092;28;20046;-38
2023/01/05 07:31:19;;;;;;;20.77;4.75;;;9.60;99.90;;;;;;5008961;28;20073;-38
2023/01/05 07:33:44;;;;;;;22.30;4.68;;;9.60;99.90;;;;;;5008812;28;20108;-38
2023/01/05 07:36:10;;;;;;;19.48;4.30;;;9.60;99.90;;;;;;5006070;28;20046;-38
2023/01/05 07:38:36;;;;;;;33.50;5.45;;;9.60;99.90;;;;;;5003738;28;20038;-39
2023/01/05 07:41:02;;;;;;;23.10;4.45;;;9.60;99.90;;;;;;5011606;28;20484;-38
2023/01/05 07:43:28;;;;;;;24.17;5.13;;;9.60;99.90;;;;;;5001465;28;20117;-38
2023/01/05 07:45:58;;;;;;;21.65;4.43;;;9.60;99.90;;;;;;4990871;28;20471;-38
2023/01/05 07:48:24;;;;;;;23.90;5.20;;;9.60;99.90;;;;;;5009029;28;20038;-38
2023/01/05 07:50:50;;;;;;;24.17;5.22;;;9.60;99.90;;;;;;5008710;28;20121;-38
2023/01/05 07:53:16;;;;;;;18.05;4.28;;;9.60;99.90;;;;;;5016582;28;20439;-38
2023/01/05 07:55:42;;;;;;;18.73;4.68;;;9.50;99.90;;;;;;5009439;28;20134;-39
2023/01/05 07:58:08;;;;;;;28.50;5.20;;;9.50;99.90;;;;;;5000821;28;20042;-38
2023/01/05 08:00:33;;;;;;;22.77;5.22;;;9.50;99.90;;;;;;5022878;28;20072;-38
2023/01/05 08:02:59;;;;;;;16.80;4.55;;;9.50;99.90;;;;;;5005271;28;20508;-39
2023/01/05 08:05:29;;;;;;;17.50;4.40;;;9.50;99.90;;;;;;5000754;28;20121;-38
2023/01/05 08:07:54;;;;;;;20.83;4.85;;;9.50;99.90;;;;;;5019363;28;20038;-38
2023/01/05 08:10:29;;;;;;;23.88;4.38;;;9.50;99.90;;;;;;4999761;28;20455;-38
2023/01/05 08:15:44;;;;;;;23.00;5.13;;;9.50;99.90;;;;;;5014476;28;20543;-38
2023/01/05 08:18:10;;;;;;;17.25;5.25;;;9.50;99.90;;;;;;5008930;28;20043;-38
2023/01/05 08:20:36;;;;;;;24.75;5.30;;;9.50;99.90;;;;;;4999797;28;20041;-38
2023/01/05 08:23:01;;;;;;;28.15;5.38;;;9.50;99.90;;;;;;5003866;28;20034;-38
2023/01/05 08:25:27;;;;;;;19.00;4.72;;;9.50;99.90;;;;;;5002994;28;20758;-36
2023/01/05 08:27:53;;;;;;;27.50;5.10;;;9.50;99.90;;;;;;5010757;28;20049;-39
2023/01/05 08:30:19;;;;;;;21.20;4.78;;;9.50;99.90;;;;;;5000153;28;20049;-38
2023/01/05 08:32:45;;;;;;;20.30;4.28;;;9.50;99.90;;;;;;5006825;28;20052;-39
2023/01/05 08:35:10;;;;;;;26.00;5.15;;;9.50;99.90;;;;;;5017698;28;20030;-39
2023/01/05 08:37:36;;;;;;;17.33;4.57;;;9.60;99.90;;;;;;4993968;28;20038;-36
2023/01/05 08:40:03;;;;;;;18.20;4.47;;;9.60;99.90;;;;;;5008694;28;20040;-39
2023/01/05 08:42:28;;;;;;;16.63;5.10;;;9.60;99.90;;;;;;5002548;28;20128;-39
2023/01/05 08:44:54;;;;;;;19.83;5.10;;;9.60;99.90;;;;;;5008532;28;20082;-38
2023/01/05 08:47:20;;;;;;;26.98;5.53;;;9.60;99.90;;;;;;5019331;28;20034;-38
2023/01/05 08:49:46;;;;;;;21.23;4.45;;;9.60;99.90;;;;;;5001686;28;20041;-39
2023/01/05 08:52:12;;;;;;;18.13;4.20;;;9.60;99.90;;;;;;5001184;28;20038;-37
2023/01/05 08:54:38;;;;;;;20.70;5.32;;;9.70;99.90;;;;;;5004743;28;20045;-38
2023/01/05 08:57:04;;;;;;;17.13;4.40;;;9.70;99.90;;;;;;5005850;28;20038;-38
2023/01/05 08:59:30;;;;;;;23.55;6.00;;;9.70;99.90;;;;;;5006275;28;20117;-37
2023/01/05 09:01:56;;;;;;;17.92;5.13;;;9.70;99.90;;;;;;5007417;28;20104;-37
2023/01/05 09:04:22;;;;;;;23.67;5.03;;;9.70;99.90;;;;;;5000383;28;20073;-38
2023/01/05 09:06:48;;;;;;;24.48;5.72;;;9.80;99.90;;;;;;5012495;28;20042;-38
2023/01/05 09:09:14;;;;;;;29.67;6.40;;;9.80;99.90;;;;;;5008056;28;20049;-40
2023/01/05 09:11:40;;;;;;;24.58;7.07;;;9.80;99.90;;;;;;5004573;28;20038;-38
2023/01/05 09:14:06;;;;;;;21.05;6.13;;;9.80;99.90;;;;;;5004267;28;20444;-38
2023/01/05 09:16:34;;;;;;;17.40;5.50;;;9.80;99.90;;;;;;5023419;28;20491;-38
2023/01/05 09:19:03;;;;;;;21.95;6.00;;;9.80;99.90;;;;;;5012398;28;20038;-37
2023/01/05 09:21:29;;;;;;;20.20;4.72;;;9.80;99.90;;;;;;5008420;28;20549;-38
2023/01/05 09:23:55;;;;;;;15.68;4.80;;;9.80;99.90;;;;;;5012694;28;20399;-38
2023/01/05 09:26:20;;;;;;;20.52;4.38;;;9.80;99.90;;;;;;5009878;28;20033;-38
2023/01/05 09:28:46;;;;;;;19.15;4.82;;;9.90;99.90;;;;;;5010743;28;20046;-38
2023/01/05 09:31:13;;;;;;;21.02;4.68;;;9.90;99.90;;;;;;5007632;28;20042;-38
2023/01/05 09:33:40;;;;;;;20.10;4.47;;;9.90;99.90;;;;;;5005577;28;20044;-38
2023/01/05 09:36:07;;;;;;;18.30;4.47;;;9.90;99.90;;;;;;5003566;28;20069;-39
2023/01/05 09:38:34;;;;;;;20.83;5.35;;;9.90;99.90;;;;;;5005812;28;20038;-39
2023/01/05 09:41:12;;;;;;;18.88;5.18;;;10.00;99.90;;;;;;5001366;28;20037;-38
2023/01/05 09:43:41;;;;;;;16.15;4.15;;;10.00;99.90;;;;;;5005461;28;20034;-37
2023/01/05 09:46:17;;;;;;;21.45;5.70;;;10.00;99.90;;;;;;5006501;28;20037;-38
2023/01/05 09:48:51;;;;;;;22.52;4.22;;;10.00;99.90;;;;;;5005798;28;20081;-38
2023/01/05 09:51:17;;;;;;;18.40;3.92;;;10.00;99.90;;;;;;5005679;28;20443;-38
2023/01/05 09:53:44;;;;;;;14.45;3.97;;;10.00;99.90;;;;;;5018914;28;20042;-38
2023/01/05 09:56:27;;;;;;;21.85;4.38;;;10.00;99.90;;;;;;5009878;28;20404;-38
2023/01/05 09:59:03;;;;;;;14.07;3.88;;;10.00;99.90;;;;;;5014760;28;20038;-38
2023/01/05 10:01:32;;;;;;;20.52;4.00;;;10.00;99.90;;;;;;5027920;28;20038;-38
2023/01/05 10:04:02;;;;;;;19.27;4.18;;;10.00;99.90;;;;;;5006966;28;20566;-38
2023/01/05 10:06:33;;;;;;;18.23;4.10;;;10.10;99.90;;;;;;5007735;28;20116;-38
2023/01/05 10:09:01;;;;;;;17.40;4.60;;;10.10;99.90;;;;;;5009164;28;20042;-38
2023/01/05 10:14:36;;;;;;;22.60;5.45;;;10.20;99.90;;;;;;5008280;28;20068;-38
2023/01/05 10:17:03;;;;;;;14.85;3.97;;;10.40;99.90;;;;;;5001265;28;20045;-38
2023/01/05 10:19:29;;;;;;;22.45;5.80;;;10.60;99.90;;;;;;5015708;28;20060;-38
2023/01/05 10:22:25;;;;;;;20.75;4.35;;;10.70;99.90;;;;;;5008102;28;20042;-38
2023/01/05 10:24:51;;;;;;;14.10;4.95;;;10.60;99.90;;;;;;5014007;28;20110;-38
2023/01/05 10:27:25;;;;;;;15.07;3.75;;;10.60;99.90;;;;;;5023810;28;20525;-38
2023/01/05 10:30:10;;;;;;;13.65;4.32;;;10.60;99.90;;;;;;5019112;28;20042;-37
2023/01/05 10:32:58;;;;;;;18.35;4.70;;;10.60;99.90;;;;;;5027550;28;20491;-38
2023/01/05 10:35:24;;;;;;;17.92;4.72;;;10.60;99.90;;;;;;5009852;28;20042;-38
2023/01/05 10:38:19;;;;;;;14.57;4.60;;;10.60;99.90;;;;;;5025510;28;20039;-38
2023/01/05 10:41:14;;;;;;;19.00;4.32;;;10.60;99.90;;;;;;4976541;28;20058;-38
2023/01/05 10:43:43;;;;;;;13.75;3.22;;;10.60;99.90;;;;;;5011700;28;20041;-38
2023/01/05 10:46:11;;;;;;;10.25;3.40;;;10.60;99.90;;;;;;4995228;28;20045;-38
2023/01/05 10:48:37;;;;;;;16.63;3.92;;;10.60;99.90;;;;;;5007841;28;20180;-38
2023/01/05 10:51:05;;;;;;;15.38;4.30;;;10.60;99.90;;;;;;5012739;28;20080;-38
2023/01/05 10:53:34;;;;;;;15.98;3.67;;;10.70;99.90;;;;;;5012824;28;20049;-38
2023/01/05 10:56:12;;;;;;;12.32;3.15;;;10.60;99.90;;;;;;5012359;28;20046;-38
2023/01/05 10:58:47;;;;;;;18.30;3.30;;;10.70;99.90;;;;;;5013237;28;20034;-38
2023/01/05 11:01:18;;;;;;;13.57;3.15;;;10.80;99.90;;;;;;5017010;28;20510;-38
2023/01/05 11:03:47;;;;;;;13.63;2.90;;;10.90;99.90;;;;;;5019582;28;20070;-38
2023/01/05 11:06:27;;;;;;;14.30;3.47;;;11.00;99.90;;;;;;5006200;28;20046;-38
2023/01/05 11:08:54;;;;;;;14.95;3.38;;;11.00;99.90;;;;;;5013266;28;20073;-38
2023/01/05 11:11:25;;;;;;;14.73;3.60;;;11.10;99.90;;;;;;5014911;28;20125;-38
2023/01/05 11:13:57;;;;;;;11.82;3.53;;;11.10;99.90;;;;;;5015265;28;20067;-38
2023/01/05 11:16:32;;;;;;;14.77;4.30;;;11.10;99.90;;;;;;5013855;28;20049;-38
2023/01/05 11:19:13;;;;;;;17.80;4.10;;;11.00;99.90;;;;;;5019395;28;20128;-37
2023/01/05 11:21:43;;;;;;;13.65;3.60;;;10.90;99.90;;;;;;5004891;28;20506;-38
2023/01/05 11:24:28;;;;;;;12.25;3.58;;;10.90;99.90;;;;;;4993429;28;20496;-38
2023/01/05 11:27:01;;;;;;;21.08;4.63;;;10.90;99.90;;;;;;5013521;28;20038;-38
2023/01/05 11:29:29;;;;;;;13.13;3.70;;;10.90;99.90;;;;;;5005758;28;20046;-38
2023/01/05 11:32:08;;;;;;;11.20;3.95;;;10.90;99.90;;;;;;5015626;28;20041;-38
2023/01/05 11:34:50;;;;;;;18.60;3.85;;;10.90;99.90;;;;;;5013010;28;20038;-38
2023/01/05 11:37:29;;;;;;;19.92;4.03;;;10.80;99.90;;;;;;5009835;28;20034;-38
2023/01/05 11:40:04;;;;;;;13.88;4.22;;;10.80;99.90;;;;;;5008732;28;20045;-38
2023/01/05 11:42:41;;;;;;;15.63;4.00;;;10.70;99.90;;;;;;5026357;28;20440;-36
2023/01/05 11:45:20;;;;;;;14.25;3.80;;;10.70;99.90;;;;;;5004994;28;20084;-36
2023/01/05 11:47:53;;;;;;;21.63;4.60;;;10.60;99.90;;;;;;5018764;28;20054;-36
2023/01/05 11:50:39;;;;;;;16.17;3.58;;;10.60;99.90;;;;;;5000387;28;20511;-37
2023/01/05 11:53:20;;;;;;;13.77;3.53;;;10.60;99.90;;;;;;5022786;28;20100;-39
2023/01/05 11:55:57;;;;;;;16.63;4.35;;;10.60;99.90;;;;;;5008370;28;20530;-39
2023/01/05 11:58:25;;;;;;;17.45;4.18;;;10.60;99.90;;;;;;5017171;28;20046;-38
2023/01/05 12:01:06;;;;;;;12.68;3.20;;;10.60;99.90;;;;;;5017326;28;20043;-38
2023/01/05 12:04:12;;;;;;;17.48;4.63;;;10.60;99.90;;;;;;5005307;28;20034;-37
2023/01/05 12:06:57;;;;;;;13.63;3.60;;;10.50;99.90;;;;;;5014480;28;20074;-38
2023/01/05 12:09:31;;;;;;;16.48;3.60;;;10.50;99.90;;;;;;5002619;28;20436;-38
2023/01/05 12:12:20;;;;;;;17.33;4.55;;;10.50;99.90;;;;;;5010283;28;20088;-38
2023/01/05 12:15:13;;;;;;;15.82;4.05;;;10.50;99.90;;;;;;5009249;28;20050;-38
2023/01/05 12:18:04;;;;;;;12.48;3.67;;;10.50;99.90;;;;;;5021109;28;20042;-38
2023/01/05 12:20:50;;;;;;;12.57;3.38;;;10.50;99.90;;;;;;5013191;28;20114;-38
2023/01/05 12:23:19;;;;;;;13.48;4.82;;;10.50;99.90;;;;;;5024118;28;20057;-37
2023/01/05 12:25:54;;;;;;;20.13;3.83;;;10.40;99.90;;;;;;5006462;28;20042;-38
2023/01/05 12:28:30;;;;;;;13.48;3.67;;;10.40;99.90;;;;;;5009023;28;20045;-38
2023/01/05 12:31:06;;;;;;;16.77;4.10;;;10.40;99.90;;;;;;5023307;28;20046;-38
2023/01/05 12:34:15;;;;;;;18.42;4.80;;;10.30;99.90;;;;;;5004822;28;20038;-38
2023/01/05 12:37:32;;;;;;;20.45;4.60;;;10.30;99.90;;;;;;5005527;28;20384;-38
2023/01/05 12:40:07;;;;;;;15.07;4.25;;;10.20;99.90;;;;;;4997333;28;20447;-37
2023/01/05 12:42:58;;;;;;;21.30;4.60;;;10.10;99.90;;;;;;5015928;28;20056;-38
2023/01/05 12:45:36;;;;;;;17.60;4.43;;;10.00;99.90;;;;;;5008054;28;20092;-38
2023/01/05 12:48:16;;;;;;;21.50;6.85;;;10.00;99.90;;;;;;5025562;28;20038;-38
2023/01/05 12:51:09;;;;;;;15.18;4.40;;;10.00;99.90;;;;;;5008534;28;20120;-38
2023/01/05 12:53:35;;;;;;;16.80;6.03;;;9.90;99.90;;;;;;5009468;28;20499;-37
2023/01/05 12:56:35;;;;;;;25.83;9.10;;;9.90;99.90;;;;;;5011613;28;20048;-38
2023/01/05 12:59:09;;;;;;;18.00;9.70;;;9.90;99.90;;;;;;5020107;28;20148;-38
2023/01/05 13:01:41;;;;;;;21.23;5.78;;;9.90;99.90;;;;;;5018368;28;20034;-38
2023/01/05 13:04:26;;;;;;;18.25;6.25;;;9.90;99.90;;;;;;5006858;28;20096;-39
2023/01/05 13:06:58;;;;;;;23.55;6.55;;;9.90;99.90;;;;;;5012825;28;20042;-38
2023/01/05 13:09:30;;;;;;;15.93;6.18;;;9.90;99.90;;;;;;5012862;28;20120;-38
2023/01/05 13:12:05;;;;;;;21.35;6.78;;;9.90;99.90;;;;;;5019302;28;20046;-38
2023/01/05 13:14:40;;;;;;;22.33;5.07;;;9.90;99.90;;;;;;5017185;28;20304;-38
2023/01/05 13:17:20;;;;;;;20.85;5.82;;;9.90;99.90;;;;;;5005974;28;20053;-38
2023/01/05 13:19:59;;;;;;;19.88;5.82;;;10.00;99.90;;;;;;5017594;28;20606;-38
2023/01/05 13:22:33;;;;;;;26.60;6.38;;;10.00;99.90;;;;;;5015521;28;20123;-38
2023/01/05 13:25:02;;;;;;;34.38;9.50;;;10.00;99.90;;;;;;5024684;28;20038;-38
2023/01/05 13:27:29;;;;;;;21.23;5.50;;;10.00;99.90;;;;;;5018821;28;20041;-38
2023/01/05 13:29:58;;;;;;;26.02;6.07;;;10.00;99.90;;;;;;5013770;28;20055;-38
2023/01/05 13:32:54;;;;;;;19.42;5.78;;;10.00;99.90;;;;;;5009174;28;20116;-38
2023/01/05 13:35:27;;;;;;;24.38;5.00;;;10.10;99.90;;;;;;4998366;28;20050;-37
2023/01/05 13:38:40;;;;;;;26.77;5.63;;;10.00;99.90;;;;;;5019837;28;20044;-38